sensor_id;sensor_type;location;lat;lon;timestamp;P1;durP1;ratioP1;P2;durP2;ratioP2
10134;SDS011;5107;48.850;8.924;2023-02-18T00:00:29;1.90;;;1.30;;
10134;SDS011;5107;48.850;8.924;2023-02-18T00:02:56;1.30;;;1.20;;
10134;SDS011;5107;48.850;8.924;2023-02-18T00:05:25;5.37;;;1.97;;
10134;SDS011;5107;48.850;8.924;2023-02-18T00:07:53;1.50;;;1.40;;
10134;SDS011;5107;48.850;8.924;2023-02-18T00:10:20;1.77;;;1.40;;
10134;SDS011;5107;48.850;8.924;2023-02-18T00:12:47;1.60;;;1.50;;
10134;SDS011;5107;48.850;8.924;2023-02-18T00:15:15;1.90;;;1.60;;
10134;SDS011;5107;48.850;8.924;2023-02-18T00:17:42;1.97;;;1.70;;
10134;SDS011;5107;48.850;8.924;2023-02-18T00:20:09;1.67;;;1.57;;
10134;SDS011;5107;48.850;8.924;2023-02-18T00:22:38;1.73;;;1.63;;
10134;SDS011;5107;48.850;8.924;2023-02-18T00:25:05;1.70;;;1.60;;
10134;SDS011;5107;48.850;8.924;2023-02-18T00:27:33;1.73;;;1.60;;
10134;SDS011;5107;48.850;8.924;2023-02-18T00:30:02;1.90;;;1.80;;
10134;SDS011;5107;48.850;8.924;2023-02-18T00:32:32;1.73;;;1.63;;
10134;SDS011;5107;48.850;8.924;2023-02-18T00:35:00;2.10;;;1.87;;
10134;SDS011;5107;48.850;8.924;2023-02-18T00:37:27;2.23;;;1.70;;
10134;SDS011;5107;48.850;8.924;2023-02-18T00:39:56;2.50;;;1.70;;
10134;SDS011;5107;48.850;8.924;2023-02-18T00:42:23;2.67;;;1.73;;
10134;SDS011;5107;48.850;8.924;2023-02-18T00:44:52;1.63;;;1.53;;
10134;SDS011;5107;48.850;8.924;2023-02-18T00:47:19;1.87;;;1.63;;
10134;SDS011;5107;48.850;8.924;2023-02-18T00:49:46;2.10;;;1.90;;
10134;SDS011;5107;48.850;8.924;2023-02-18T00:52:13;1.97;;;1.77;;
10134;SDS011;5107;48.850;8.924;2023-02-18T00:54:40;2.00;;;1.90;;
10134;SDS011;5107;48.850;8.924;2023-02-18T00:57:09;2.30;;;2.10;;
10134;SDS011;5107;48.850;8.924;2023-02-18T00:59:36;3.00;;;2.10;;
10134;SDS011;5107;48.850;8.924;2023-02-18T01:02:03;2.20;;;2.00;;
10134;SDS011;5107;48.850;8.924;2023-02-18T01:04:31;2.30;;;2.10;;
10134;SDS011;5107;48.850;8.924;2023-02-18T01:06:58;3.27;;;2.10;;
10134;SDS011;5107;48.850;8.924;2023-02-18T01:09:26;2.53;;;2.10;;
10134;SDS011;5107;48.850;8.924;2023-02-18T01:11:54;2.30;;;2.10;;
10134;SDS011;5107;48.850;8.924;2023-02-18T01:14:22;2.53;;;2.33;;
10134;SDS011;5107;48.850;8.924;2023-02-18T01:16:49;2.40;;;2.20;;
10134;SDS011;5107;48.850;8.924;2023-02-18T01:19:16;4.40;;;2.60;;
10134;SDS011;5107;48.850;8.924;2023-02-18T01:21:43;2.83;;;2.40;;
10134;SDS011;5107;48.850;8.924;2023-02-18T01:24:10;2.53;;;2.33;;
10134;SDS011;5107;48.850;8.924;2023-02-18T01:26:38;2.60;;;2.40;;
10134;SDS011;5107;48.850;8.924;2023-02-18T01:29:05;2.63;;;2.43;;
10134;SDS011;5107;48.850;8.924;2023-02-18T01:31:33;2.93;;;2.50;;
10134;SDS011;5107;48.850;8.924;2023-02-18T01:34:00;2.43;;;2.23;;
10134;SDS011;5107;48.850;8.924;2023-02-18T01:36:27;2.73;;;2.30;;
10134;SDS011;5107;48.850;8.924;2023-02-18T01:38:55;2.43;;;2.23;;
10134;SDS011;5107;48.850;8.924;2023-02-18T01:41:22;2.33;;;2.13;;
10134;SDS011;5107;48.850;8.924;2023-02-18T01:46:45;2.20;;;2.00;;
10134;SDS011;5107;48.850;8.924;2023-02-18T01:49:15;2.27;;;2.07;;
10134;SDS011;5107;48.850;8.924;2023-02-18T01:51:46;2.40;;;2.20;;
10134;SDS011;5107;48.850;8.924;2023-02-18T01:54:18;2.40;;;2.20;;
10134;SDS011;5107;48.850;8.924;2023-02-18T01:56:53;2.40;;;2.20;;
10134;SDS011;5107;48.850;8.924;2023-02-18T01:59:28;2.50;;;2.30;;
10134;SDS011;5107;48.850;8.924;2023-02-18T02:02:01;2.10;;;1.90;;
10134;SDS011;5107;48.850;8.924;2023-02-18T02:04:28;2.13;;;2.03;;
10134;SDS011;5107;48.850;8.924;2023-02-18T02:06:55;2.10;;;2.00;;
10134;SDS011;5107;48.850;8.924;2023-02-18T02:09:23;2.43;;;2.23;;
10134;SDS011;5107;48.850;8.924;2023-02-18T02:12:04;2.50;;;2.30;;
10134;SDS011;5107;48.850;8.924;2023-02-18T02:15:11;3.60;;;2.50;;
10134;SDS011;5107;48.850;8.924;2023-02-18T02:17:55;2.47;;;2.27;;
10134;SDS011;5107;48.850;8.924;2023-02-18T02:20:44;2.47;;;2.27;;
10134;SDS011;5107;48.850;8.924;2023-02-18T02:23:47;2.80;;;2.60;;
10134;SDS011;5107;48.850;8.924;2023-02-18T02:27:04;2.63;;;2.43;;
10134;SDS011;5107;48.850;8.924;2023-02-18T02:33:13;3.10;;;2.80;;
10134;SDS011;5107;48.850;8.924;2023-02-18T02:36:16;3.10;;;2.80;;
10134;SDS011;5107;48.850;8.924;2023-02-18T02:38:51;2.73;;;2.53;;
10134;SDS011;5107;48.850;8.924;2023-02-18T02:41:29;2.87;;;2.63;;
10134;SDS011;5107;48.850;8.924;2023-02-18T02:44:13;3.50;;;2.87;;
10134;SDS011;5107;48.850;8.924;2023-02-18T02:46:47;2.40;;;2.20;;
10134;SDS011;5107;48.850;8.924;2023-02-18T02:49:20;2.80;;;2.47;;
10134;SDS011;5107;48.850;8.924;2023-02-18T02:52:01;2.93;;;2.63;;
10134;SDS011;5107;48.850;8.924;2023-02-18T02:54:35;3.53;;;2.50;;
10134;SDS011;5107;48.850;8.924;2023-02-18T02:57:07;2.70;;;2.20;;
10134;SDS011;5107;48.850;8.924;2023-02-18T02:59:59;2.77;;;2.53;;
10134;SDS011;5107;48.850;8.924;2023-02-18T03:02:36;2.77;;;2.47;;
10134;SDS011;5107;48.850;8.924;2023-02-18T03:05:18;2.60;;;2.40;;
10134;SDS011;5107;48.850;8.924;2023-02-18T03:08:04;2.67;;;2.47;;
10134;SDS011;5107;48.850;8.924;2023-02-18T03:10:47;2.40;;;2.20;;
10134;SDS011;5107;48.850;8.924;2023-02-18T03:13:25;2.67;;;2.10;;
10134;SDS011;5107;48.850;8.924;2023-02-18T03:16:05;2.37;;;2.17;;
10134;SDS011;5107;48.850;8.924;2023-02-18T03:18:43;2.40;;;2.20;;
10134;SDS011;5107;48.850;8.924;2023-02-18T03:21:18;2.30;;;2.10;;
10134;SDS011;5107;48.850;8.924;2023-02-18T03:23:52;2.60;;;2.10;;
10134;SDS011;5107;48.850;8.924;2023-02-18T03:26:25;3.53;;;2.27;;
10134;SDS011;5107;48.850;8.924;2023-02-18T03:28:57;2.90;;;2.50;;
10134;SDS011;5107;48.850;8.924;2023-02-18T03:31:29;2.67;;;2.47;;
10134;SDS011;5107;48.850;8.924;2023-02-18T03:34:01;2.80;;;2.60;;
10134;SDS011;5107;48.850;8.924;2023-02-18T03:36:35;3.20;;;2.73;;
10134;SDS011;5107;48.850;8.924;2023-02-18T03:39:06;2.57;;;2.37;;
10134;SDS011;5107;48.850;8.924;2023-02-18T03:41:37;3.40;;;2.67;;
10134;SDS011;5107;48.850;8.924;2023-02-18T03:44:05;4.10;;;2.73;;
10134;SDS011;5107;48.850;8.924;2023-02-18T03:46:34;2.90;;;2.60;;
10134;SDS011;5107;48.850;8.924;2023-02-18T03:49:03;2.93;;;2.50;;
10134;SDS011;5107;48.850;8.924;2023-02-18T03:51:31;2.63;;;2.43;;
10134;SDS011;5107;48.850;8.924;2023-02-18T03:53:58;3.83;;;2.67;;
10134;SDS011;5107;48.850;8.924;2023-02-18T03:56:26;2.43;;;2.23;;
10134;SDS011;5107;48.850;8.924;2023-02-18T03:58:53;3.13;;;2.83;;
10134;SDS011;5107;48.850;8.924;2023-02-18T04:01:20;3.43;;;2.47;;
10134;SDS011;5107;48.850;8.924;2023-02-18T04:03:47;3.83;;;2.50;;
10134;SDS011;5107;48.850;8.924;2023-02-18T04:06:14;2.70;;;2.40;;
10134;SDS011;5107;48.850;8.924;2023-02-18T04:08:42;2.50;;;2.30;;
10134;SDS011;5107;48.850;8.924;2023-02-18T04:11:09;2.87;;;2.40;;
10134;SDS011;5107;48.850;8.924;2023-02-18T04:13:38;2.30;;;2.10;;
10134;SDS011;5107;48.850;8.924;2023-02-18T04:16:05;2.70;;;2.47;;
10134;SDS011;5107;48.850;8.924;2023-02-18T04:18:32;2.60;;;2.40;;
10134;SDS011;5107;48.850;8.924;2023-02-18T04:20:59;2.67;;;2.47;;
10134;SDS011;5107;48.850;8.924;2023-02-18T04:23:27;3.03;;;2.73;;
10134;SDS011;5107;48.850;8.924;2023-02-18T04:25:53;3.07;;;2.53;;
10134;SDS011;5107;48.850;8.924;2023-02-18T04:28:20;2.30;;;2.10;;
10134;SDS011;5107;48.850;8.924;2023-02-18T04:30:49;2.40;;;2.20;;
10134;SDS011;5107;48.850;8.924;2023-02-18T04:33:16;2.60;;;2.40;;
10134;SDS011;5107;48.850;8.924;2023-02-18T04:35:43;2.60;;;2.40;;
10134;SDS011;5107;48.850;8.924;2023-02-18T04:38:10;2.40;;;2.10;;
10134;SDS011;5107;48.850;8.924;2023-02-18T04:40:39;2.30;;;2.10;;
10134;SDS011;5107;48.850;8.924;2023-02-18T04:43:06;2.60;;;2.37;;
10134;SDS011;5107;48.850;8.924;2023-02-18T04:45:33;2.40;;;2.20;;
10134;SDS011;5107;48.850;8.924;2023-02-18T04:48:02;2.87;;;2.40;;
10134;SDS011;5107;48.850;8.924;2023-02-18T04:50:30;2.67;;;2.27;;
10134;SDS011;5107;48.850;8.924;2023-02-18T04:52:57;2.13;;;1.93;;
10134;SDS011;5107;48.850;8.924;2023-02-18T04:55:24;2.47;;;2.27;;
10134;SDS011;5107;48.850;8.924;2023-02-18T04:57:51;2.83;;;2.40;;
10134;SDS011;5107;48.850;8.924;2023-02-18T05:00:18;2.67;;;2.30;;
10134;SDS011;5107;48.850;8.924;2023-02-18T05:02:46;2.30;;;2.10;;
10134;SDS011;5107;48.850;8.924;2023-02-18T05:05:15;2.47;;;2.27;;
10134;SDS011;5107;48.850;8.924;2023-02-18T05:07:42;2.43;;;2.23;;
10134;SDS011;5107;48.850;8.924;2023-02-18T05:10:09;2.50;;;2.30;;
10134;SDS011;5107;48.850;8.924;2023-02-18T05:12:39;4.10;;;2.27;;
10134;SDS011;5107;48.850;8.924;2023-02-18T05:15:07;3.07;;;2.20;;
10134;SDS011;5107;48.850;8.924;2023-02-18T05:17:34;2.27;;;2.07;;
10134;SDS011;5107;48.850;8.924;2023-02-18T05:20:01;3.70;;;2.60;;
10134;SDS011;5107;48.850;8.924;2023-02-18T05:22:30;3.03;;;2.63;;
10134;SDS011;5107;48.850;8.924;2023-02-18T05:24:57;2.53;;;2.33;;
10134;SDS011;5107;48.850;8.924;2023-02-18T05:27:24;3.17;;;2.30;;
10134;SDS011;5107;48.850;8.924;2023-02-18T05:29:51;2.50;;;2.30;;
10134;SDS011;5107;48.850;8.924;2023-02-18T05:32:18;2.40;;;2.10;;
10134;SDS011;5107;48.850;8.924;2023-02-18T05:34:45;3.27;;;2.30;;
10134;SDS011;5107;48.850;8.924;2023-02-18T05:37:12;2.40;;;2.20;;
10134;SDS011;5107;48.850;8.924;2023-02-18T05:39:41;2.37;;;2.17;;
10134;SDS011;5107;48.850;8.924;2023-02-18T05:42:08;2.40;;;2.20;;
10134;SDS011;5107;48.850;8.924;2023-02-18T05:44:36;2.83;;;2.50;;
10134;SDS011;5107;48.850;8.924;2023-02-18T05:47:04;2.20;;;2.00;;
10134;SDS011;5107;48.850;8.924;2023-02-18T05:49:33;2.53;;;2.33;;
10134;SDS011;5107;48.850;8.924;2023-02-18T05:52:02;2.70;;;2.40;;
10134;SDS011;5107;48.850;8.924;2023-02-18T05:54:29;2.30;;;2.07;;
10134;SDS011;5107;48.850;8.924;2023-02-18T05:56:58;1.90;;;1.80;;
10134;SDS011;5107;48.850;8.924;2023-02-18T05:59:25;3.10;;;2.23;;
10134;SDS011;5107;48.850;8.924;2023-02-18T06:01:52;3.03;;;2.33;;
10134;SDS011;5107;48.850;8.924;2023-02-18T06:04:20;4.87;;;2.70;;
10134;SDS011;5107;48.850;8.924;2023-02-18T06:06:47;2.60;;;2.40;;
10134;SDS011;5107;48.850;8.924;2023-02-18T06:09:14;2.53;;;2.20;;
10134;SDS011;5107;48.850;8.924;2023-02-18T06:11:41;2.97;;;2.70;;
10134;SDS011;5107;48.850;8.924;2023-02-18T06:14:10;2.83;;;2.50;;
10134;SDS011;5107;48.850;8.924;2023-02-18T06:16:37;2.50;;;2.30;;
10134;SDS011;5107;48.850;8.924;2023-02-18T06:19:04;2.73;;;2.30;;
10134;SDS011;5107;48.850;8.924;2023-02-18T06:21:31;2.13;;;1.93;;
10134;SDS011;5107;48.850;8.924;2023-02-18T06:23:58;2.43;;;2.23;;
10134;SDS011;5107;48.850;8.924;2023-02-18T06:26:25;2.00;;;1.80;;
10134;SDS011;5107;48.850;8.924;2023-02-18T06:28:52;2.30;;;2.10;;
10134;SDS011;5107;48.850;8.924;2023-02-18T06:31:21;3.10;;;2.47;;
10134;SDS011;5107;48.850;8.924;2023-02-18T06:33:48;2.53;;;1.90;;
10134;SDS011;5107;48.850;8.924;2023-02-18T06:36:15;2.67;;;2.10;;
10134;SDS011;5107;48.850;8.924;2023-02-18T06:38:42;3.17;;;2.40;;
10134;SDS011;5107;48.850;8.924;2023-02-18T06:41:10;2.37;;;2.17;;
10134;SDS011;5107;48.850;8.924;2023-02-18T06:43:39;2.83;;;2.30;;
10134;SDS011;5107;48.850;8.924;2023-02-18T06:46:06;2.60;;;2.10;;
10134;SDS011;5107;48.850;8.924;2023-02-18T06:48:35;2.50;;;2.30;;
10134;SDS011;5107;48.850;8.924;2023-02-18T06:51:03;2.50;;;2.30;;
10134;SDS011;5107;48.850;8.924;2023-02-18T06:53:30;2.23;;;2.03;;
10134;SDS011;5107;48.850;8.924;2023-02-18T06:55:57;2.00;;;1.90;;
10134;SDS011;5107;48.850;8.924;2023-02-18T06:58:24;2.30;;;2.10;;
10134;SDS011;5107;48.850;8.924;2023-02-18T07:00:52;2.73;;;2.27;;
10134;SDS011;5107;48.850;8.924;2023-02-18T07:03:19;2.20;;;2.00;;
10134;SDS011;5107;48.850;8.924;2023-02-18T07:05:47;2.63;;;2.37;;
10134;SDS011;5107;48.850;8.924;2023-02-18T07:08:14;2.50;;;2.27;;
10134;SDS011;5107;48.850;8.924;2023-02-18T07:10:41;2.10;;;1.90;;
10134;SDS011;5107;48.850;8.924;2023-02-18T07:13:08;2.67;;;2.30;;
10134;SDS011;5107;48.850;8.924;2023-02-18T07:15:36;2.63;;;2.40;;
10134;SDS011;5107;48.850;8.924;2023-02-18T07:18:03;2.33;;;2.13;;
10134;SDS011;5107;48.850;8.924;2023-02-18T07:20:30;2.77;;;2.57;;
10134;SDS011;5107;48.850;8.924;2023-02-18T07:22:59;2.30;;;2.13;;
10134;SDS011;5107;48.850;8.924;2023-02-18T07:25:26;2.70;;;2.50;;
10134;SDS011;5107;48.850;8.924;2023-02-18T07:27:53;3.07;;;2.50;;
10134;SDS011;5107;48.850;8.924;2023-02-18T07:30:20;2.67;;;2.23;;
10134;SDS011;5107;48.850;8.924;2023-02-18T07:32:47;2.50;;;2.17;;
10134;SDS011;5107;48.850;8.924;2023-02-18T07:35:14;2.40;;;2.20;;
10134;SDS011;5107;48.850;8.924;2023-02-18T07:37:43;2.30;;;2.10;;
10134;SDS011;5107;48.850;8.924;2023-02-18T07:40:13;2.30;;;2.10;;
10134;SDS011;5107;48.850;8.924;2023-02-18T07:42:41;2.60;;;2.40;;
10134;SDS011;5107;48.850;8.924;2023-02-18T07:45:09;2.00;;;1.80;;
10134;SDS011;5107;48.850;8.924;2023-02-18T07:47:37;2.83;;;2.50;;
10134;SDS011;5107;48.850;8.924;2023-02-18T07:50:06;2.53;;;2.20;;
10134;SDS011;5107;48.850;8.924;2023-02-18T07:52:34;2.53;;;2.20;;
10134;SDS011;5107;48.850;8.924;2023-02-18T07:55:01;2.30;;;2.10;;
10134;SDS011;5107;48.850;8.924;2023-02-18T07:57:30;2.67;;;2.20;;
10134;SDS011;5107;48.850;8.924;2023-02-18T07:59:57;3.03;;;2.13;;
10134;SDS011;5107;48.850;8.924;2023-02-18T08:02:24;2.30;;;2.00;;
10134;SDS011;5107;48.850;8.924;2023-02-18T08:04:51;2.73;;;2.50;;
10134;SDS011;5107;48.850;8.924;2023-02-18T08:07:18;2.73;;;2.53;;
10134;SDS011;5107;48.850;8.924;2023-02-18T08:09:46;2.40;;;2.20;;
10134;SDS011;5107;48.850;8.924;2023-02-18T08:12:14;3.23;;;2.20;;
10134;SDS011;5107;48.850;8.924;2023-02-18T08:14:43;3.03;;;2.20;;
10134;SDS011;5107;48.850;8.924;2023-02-18T08:17:10;2.80;;;2.37;;
10134;SDS011;5107;48.850;8.924;2023-02-18T08:19:38;2.70;;;2.50;;
10134;SDS011;5107;48.850;8.924;2023-02-18T08:22:05;3.30;;;2.53;;
10134;SDS011;5107;48.850;8.924;2023-02-18T08:24:32;2.10;;;1.90;;
10134;SDS011;5107;48.850;8.924;2023-02-18T08:26:59;2.47;;;2.20;;
10134;SDS011;5107;48.850;8.924;2023-02-18T08:29:26;2.23;;;2.00;;
10134;SDS011;5107;48.850;8.924;2023-02-18T08:31:55;2.30;;;2.10;;
10134;SDS011;5107;48.850;8.924;2023-02-18T08:34:23;2.20;;;2.00;;
10134;SDS011;5107;48.850;8.924;2023-02-18T08:36:50;2.70;;;2.27;;
10134;SDS011;5107;48.850;8.924;2023-02-18T08:39:18;2.40;;;2.10;;
10134;SDS011;5107;48.850;8.924;2023-02-18T08:41:45;2.50;;;2.30;;
10134;SDS011;5107;48.850;8.924;2023-02-18T08:44:12;2.43;;;2.03;;
10134;SDS011;5107;48.850;8.924;2023-02-18T08:46:39;2.03;;;1.83;;
10134;SDS011;5107;48.850;8.924;2023-02-18T08:49:07;2.40;;;1.87;;
10134;SDS011;5107;48.850;8.924;2023-02-18T08:51:34;3.27;;;2.30;;
10134;SDS011;5107;48.850;8.924;2023-02-18T08:54:01;2.20;;;2.00;;
10134;SDS011;5107;48.850;8.924;2023-02-18T08:56:29;2.50;;;2.13;;
10134;SDS011;5107;48.850;8.924;2023-02-18T08:58:57;2.93;;;1.90;;
10134;SDS011;5107;48.850;8.924;2023-02-18T09:01:24;2.13;;;1.70;;
10134;SDS011;5107;48.850;8.924;2023-02-18T09:03:52;2.03;;;1.83;;
10134;SDS011;5107;48.850;8.924;2023-02-18T09:06:20;2.70;;;2.30;;
10134;SDS011;5107;48.850;8.924;2023-02-18T09:08:47;2.27;;;1.50;;
10134;SDS011;5107;48.850;8.924;2023-02-18T09:11:15;1.60;;;1.50;;
10134;SDS011;5107;48.850;8.924;2023-02-18T09:13:43;2.20;;;1.67;;
10134;SDS011;5107;48.850;8.924;2023-02-18T09:16:11;1.57;;;1.47;;
10134;SDS011;5107;48.850;8.924;2023-02-18T09:18:42;1.70;;;1.60;;
10134;SDS011;5107;48.850;8.924;2023-02-18T09:21:10;1.90;;;1.60;;
10134;SDS011;5107;48.850;8.924;2023-02-18T09:23:40;1.70;;;1.60;;
10134;SDS011;5107;48.850;8.924;2023-02-18T09:26:08;1.50;;;1.40;;
10134;SDS011;5107;48.850;8.924;2023-02-18T09:28:39;1.87;;;1.60;;
10134;SDS011;5107;48.850;8.924;2023-02-18T09:31:07;1.30;;;1.20;;
10134;SDS011;5107;48.850;8.924;2023-02-18T09:33:41;1.40;;;1.30;;
10134;SDS011;5107;48.850;8.924;2023-02-18T09:36:10;3.17;;;1.80;;
10134;SDS011;5107;48.850;8.924;2023-02-18T09:38:38;3.77;;;1.60;;
10134;SDS011;5107;48.850;8.924;2023-02-18T09:41:07;1.50;;;1.40;;
10134;SDS011;5107;48.850;8.924;2023-02-18T09:43:40;2.00;;;1.70;;
10134;SDS011;5107;48.850;8.924;2023-02-18T09:46:13;1.67;;;1.57;;
10134;SDS011;5107;48.850;8.924;2023-02-18T09:48:47;1.57;;;1.47;;
10134;SDS011;5107;48.850;8.924;2023-02-18T09:51:16;1.80;;;1.70;;
10134;SDS011;5107;48.850;8.924;2023-02-18T09:53:45;1.70;;;1.50;;
10134;SDS011;5107;48.850;8.924;2023-02-18T09:56:14;1.47;;;1.37;;
10134;SDS011;5107;48.850;8.924;2023-02-18T09:58:45;1.57;;;1.47;;
10134;SDS011;5107;48.850;8.924;2023-02-18T10:01:15;1.60;;;1.50;;
10134;SDS011;5107;48.850;8.924;2023-02-18T10:03:50;1.80;;;1.50;;
10134;SDS011;5107;48.850;8.924;2023-02-18T10:06:19;1.60;;;1.50;;
10134;SDS011;5107;48.850;8.924;2023-02-18T10:08:52;2.00;;;1.80;;
10134;SDS011;5107;48.850;8.924;2023-02-18T10:11:21;2.90;;;1.80;;
10134;SDS011;5107;48.850;8.924;2023-02-18T10:13:57;1.70;;;1.60;;
10134;SDS011;5107;48.850;8.924;2023-02-18T10:16:27;2.00;;;1.80;;
10134;SDS011;5107;48.850;8.924;2023-02-18T10:18:55;1.83;;;1.73;;
10134;SDS011;5107;48.850;8.924;2023-02-18T10:21:25;1.93;;;1.50;;
10134;SDS011;5107;48.850;8.924;2023-02-18T10:23:59;1.67;;;1.57;;
10134;SDS011;5107;48.850;8.924;2023-02-18T10:26:30;2.77;;;1.50;;
10134;SDS011;5107;48.850;8.924;2023-02-18T10:29:01;2.40;;;1.60;;
10134;SDS011;5107;48.850;8.924;2023-02-18T10:31:29;2.30;;;1.40;;
10134;SDS011;5107;48.850;8.924;2023-02-18T10:34:03;1.73;;;1.63;;
10134;SDS011;5107;48.850;8.924;2023-02-18T10:36:44;1.40;;;1.30;;
10134;SDS011;5107;48.850;8.924;2023-02-18T10:42:19;1.90;;;1.30;;
10134;SDS011;5107;48.850;8.924;2023-02-18T10:45:03;1.30;;;1.20;;
10134;SDS011;5107;48.850;8.924;2023-02-18T10:47:42;1.73;;;1.50;;
10134;SDS011;5107;48.850;8.924;2023-02-18T10:50:22;2.83;;;1.30;;
10134;SDS011;5107;48.850;8.924;2023-02-18T10:52:54;1.10;;;1.10;;
10134;SDS011;5107;48.850;8.924;2023-02-18T10:55:34;1.50;;;1.40;;
10134;SDS011;5107;48.850;8.924;2023-02-18T10:58:09;1.33;;;1.23;;
10134;SDS011;5107;48.850;8.924;2023-02-18T11:00:55;1.20;;;1.10;;
10134;SDS011;5107;48.850;8.924;2023-02-18T11:03:23;1.40;;;1.30;;
10134;SDS011;5107;48.850;8.924;2023-02-18T11:05:53;1.07;;;1.07;;
10134;SDS011;5107;48.850;8.924;2023-02-18T11:08:22;1.40;;;1.30;;
10134;SDS011;5107;48.850;8.924;2023-02-18T11:10:54;1.50;;;1.40;;
10134;SDS011;5107;48.850;8.924;2023-02-18T11:13:23;1.70;;;1.60;;
10134;SDS011;5107;48.850;8.924;2023-02-18T11:15:55;2.17;;;1.57;;
10134;SDS011;5107;48.850;8.924;2023-02-18T11:18:29;1.93;;;1.67;;
10134;SDS011;5107;48.850;8.924;2023-02-18T11:21:04;1.43;;;1.33;;
10134;SDS011;5107;48.850;8.924;2023-02-18T11:23:45;1.60;;;1.50;;
10134;SDS011;5107;48.850;8.924;2023-02-18T11:26:16;1.73;;;1.60;;
10134;SDS011;5107;48.850;8.924;2023-02-18T11:28:48;1.90;;;1.80;;
10134;SDS011;5107;48.850;8.924;2023-02-18T11:31:22;1.80;;;1.70;;
10134;SDS011;5107;48.850;8.924;2023-02-18T11:33:52;1.97;;;1.70;;
10134;SDS011;5107;48.850;8.924;2023-02-18T11:36:23;1.60;;;1.50;;
10134;SDS011;5107;48.850;8.924;2023-02-18T11:38:55;1.73;;;1.63;;
10134;SDS011;5107;48.850;8.924;2023-02-18T11:41:32;2.57;;;1.93;;
10134;SDS011;5107;48.850;8.924;2023-02-18T11:44:03;1.70;;;1.60;;
10134;SDS011;5107;48.850;8.924;2023-02-18T11:46:33;2.90;;;1.73;;
10134;SDS011;5107;48.850;8.924;2023-02-18T11:49:10;2.07;;;1.43;;
10134;SDS011;5107;48.850;8.924;2023-02-18T11:51:48;1.90;;;1.60;;
10134;SDS011;5107;48.850;8.924;2023-02-18T11:54:21;1.50;;;1.40;;
10134;SDS011;5107;48.850;8.924;2023-02-18T11:56:56;2.50;;;1.47;;
10134;SDS011;5107;48.850;8.924;2023-02-18T11:59:26;1.70;;;1.60;;
10134;SDS011;5107;48.850;8.924;2023-02-18T12:02:00;1.70;;;1.60;;
10134;SDS011;5107;48.850;8.924;2023-02-18T12:04:40;1.40;;;1.30;;
10134;SDS011;5107;48.850;8.924;2023-02-18T12:07:14;1.60;;;1.50;;
10134;SDS011;5107;48.850;8.924;2023-02-18T12:09:51;1.60;;;1.50;;
10134;SDS011;5107;48.850;8.924;2023-02-18T12:12:25;1.73;;;1.60;;
10134;SDS011;5107;48.850;8.924;2023-02-18T12:14:56;1.70;;;1.60;;
10134;SDS011;5107;48.850;8.924;2023-02-18T12:17:28;1.70;;;1.50;;
10134;SDS011;5107;48.850;8.924;2023-02-18T12:20:23;1.90;;;1.80;;
10134;SDS011;5107;48.850;8.924;2023-02-18T12:23:40;4.07;;;2.03;;
10134;SDS011;5107;48.850;8.924;2023-02-18T12:26:20;3.57;;;1.90;;
10134;SDS011;5107;48.850;8.924;2023-02-18T12:29:00;3.20;;;1.90;;
10134;SDS011;5107;48.850;8.924;2023-02-18T12:32:02;1.70;;;1.60;;
10134;SDS011;5107;48.850;8.924;2023-02-18T12:34:42;2.27;;;1.63;;
10134;SDS011;5107;48.850;8.924;2023-02-18T12:40:38;1.90;;;1.70;;
10134;SDS011;5107;48.850;8.924;2023-02-18T12:43:18;2.07;;;1.87;;
10134;SDS011;5107;48.850;8.924;2023-02-18T12:48:52;1.93;;;1.70;;
10134;SDS011;5107;48.850;8.924;2023-02-18T12:51:41;2.57;;;2.07;;
10134;SDS011;5107;48.850;8.924;2023-02-18T12:54:44;2.00;;;1.80;;
10134;SDS011;5107;48.850;8.924;2023-02-18T12:57:35;2.40;;;1.87;;
10134;SDS011;5107;48.850;8.924;2023-02-18T13:03:30;2.33;;;2.07;;
10134;SDS011;5107;48.850;8.924;2023-02-18T13:06:18;3.53;;;1.70;;
10134;SDS011;5107;48.850;8.924;2023-02-18T13:09:02;1.80;;;1.70;;
10134;SDS011;5107;48.850;8.924;2023-02-18T13:11:39;2.17;;;1.97;;
10134;SDS011;5107;48.850;8.924;2023-02-18T13:14:17;1.87;;;1.77;;
10134;SDS011;5107;48.850;8.924;2023-02-18T13:16:47;2.03;;;1.83;;
10134;SDS011;5107;48.850;8.924;2023-02-18T13:19:20;2.63;;;2.20;;
10134;SDS011;5107;48.850;8.924;2023-02-18T13:21:51;2.00;;;1.80;;
10134;SDS011;5107;48.850;8.924;2023-02-18T13:24:26;2.83;;;2.00;;
10134;SDS011;5107;48.850;8.924;2023-02-18T13:27:00;2.63;;;2.03;;
10134;SDS011;5107;48.850;8.924;2023-02-18T13:29:38;2.30;;;2.10;;
10134;SDS011;5107;48.850;8.924;2023-02-18T13:32:17;3.80;;;2.20;;
10134;SDS011;5107;48.850;8.924;2023-02-18T13:34:56;2.23;;;1.90;;
10134;SDS011;5107;48.850;8.924;2023-02-18T13:37:32;2.67;;;2.00;;
10134;SDS011;5107;48.850;8.924;2023-02-18T13:40:13;2.33;;;2.13;;
10134;SDS011;5107;48.850;8.924;2023-02-18T13:42:45;3.00;;;2.10;;
10134;SDS011;5107;48.850;8.924;2023-02-18T13:45:23;2.23;;;2.00;;
10134;SDS011;5107;48.850;8.924;2023-02-18T13:47:54;2.20;;;2.00;;
10134;SDS011;5107;48.850;8.924;2023-02-18T13:50:31;1.97;;;1.87;;
10134;SDS011;5107;48.850;8.924;2023-02-18T13:53:14;4.17;;;2.10;;
10134;SDS011;5107;48.850;8.924;2023-02-18T13:55:53;2.17;;;1.97;;
10134;SDS011;5107;48.850;8.924;2023-02-18T13:58:28;1.80;;;1.70;;
10134;SDS011;5107;48.850;8.924;2023-02-18T14:01:02;3.90;;;2.10;;
10134;SDS011;5107;48.850;8.924;2023-02-18T14:03:55;2.23;;;1.90;;
10134;SDS011;5107;48.850;8.924;2023-02-18T14:06:27;2.00;;;1.80;;
10134;SDS011;5107;48.850;8.924;2023-02-18T14:09:02;1.80;;;1.70;;
10134;SDS011;5107;48.850;8.924;2023-02-18T14:18:24;2.43;;;1.90;;
10134;SDS011;5107;48.850;8.924;2023-02-18T14:21:04;2.10;;;1.90;;
10134;SDS011;5107;48.850;8.924;2023-02-18T14:23:56;2.60;;;2.07;;
10134;SDS011;5107;48.850;8.924;2023-02-18T14:26:29;2.77;;;2.20;;
10134;SDS011;5107;48.850;8.924;2023-02-18T14:29:01;2.63;;;2.10;;
10134;SDS011;5107;48.850;8.924;2023-02-18T14:31:42;2.97;;;2.20;;
10134;SDS011;5107;48.850;8.924;2023-02-18T14:37:33;2.77;;;2.33;;
10134;SDS011;5107;48.850;8.924;2023-02-18T14:40:51;2.87;;;2.30;;
10134;SDS011;5107;48.850;8.924;2023-02-18T14:43:54;3.13;;;1.87;;
10134;SDS011;5107;48.850;8.924;2023-02-18T14:46:38;3.03;;;2.43;;
10134;SDS011;5107;48.850;8.924;2023-02-18T14:49:35;2.50;;;2.30;;
10134;SDS011;5107;48.850;8.924;2023-02-18T14:52:10;2.50;;;2.27;;
10134;SDS011;5107;48.850;8.924;2023-02-18T14:54:44;3.70;;;2.50;;
10134;SDS011;5107;48.850;8.924;2023-02-18T14:57:13;3.00;;;2.60;;
10134;SDS011;5107;48.850;8.924;2023-02-18T14:59:44;2.63;;;2.43;;
10134;SDS011;5107;48.850;8.924;2023-02-18T15:02:14;2.77;;;2.57;;
10134;SDS011;5107;48.850;8.924;2023-02-18T15:04:46;2.57;;;2.20;;
10134;SDS011;5107;48.850;8.924;2023-02-18T15:07:16;2.40;;;2.10;;
10134;SDS011;5107;48.850;8.924;2023-02-18T15:09:45;3.97;;;2.73;;
10134;SDS011;5107;48.850;8.924;2023-02-18T15:12:16;3.00;;;2.40;;
10134;SDS011;5107;48.850;8.924;2023-02-18T15:14:46;3.83;;;2.60;;
10134;SDS011;5107;48.850;8.924;2023-02-18T15:17:18;2.53;;;2.33;;
10134;SDS011;5107;48.850;8.924;2023-02-18T15:19:50;3.00;;;2.20;;
10134;SDS011;5107;48.850;8.924;2023-02-18T15:22:20;2.70;;;2.33;;
10134;SDS011;5107;48.850;8.924;2023-02-18T15:24:49;2.80;;;2.30;;
10134;SDS011;5107;48.850;8.924;2023-02-18T15:27:20;2.83;;;2.27;;
10134;SDS011;5107;48.850;8.924;2023-02-18T15:29:50;2.50;;;2.20;;
10134;SDS011;5107;48.850;8.924;2023-02-18T15:32:23;4.93;;;2.37;;
10134;SDS011;5107;48.850;8.924;2023-02-18T15:34:53;3.83;;;2.43;;
10134;SDS011;5107;48.850;8.924;2023-02-18T15:37:22;3.07;;;2.37;;
10134;SDS011;5107;48.850;8.924;2023-02-18T15:39:49;2.50;;;2.00;;
10134;SDS011;5107;48.850;8.924;2023-02-18T15:42:21;2.63;;;2.30;;
10134;SDS011;5107;48.850;8.924;2023-02-18T15:44:54;2.30;;;2.10;;
10134;SDS011;5107;48.850;8.924;2023-02-18T15:47:23;2.43;;;2.23;;
10134;SDS011;5107;48.850;8.924;2023-02-18T15:49:51;2.33;;;2.13;;
10134;SDS011;5107;48.850;8.924;2023-02-18T15:52:24;2.80;;;2.13;;
10134;SDS011;5107;48.850;8.924;2023-02-18T15:54:54;2.63;;;2.30;;
10134;SDS011;5107;48.850;8.924;2023-02-18T15:57:28;2.73;;;2.30;;